sensor_id;sensor_type;location;lat;lon;timestamp;pressure;altitude;pressure_sealevel;temperature;humidity
52949;BME280;38812;50.942;3.644;2022-08-16T00:00:50;100550.78;;;19.32;100.00
52949;BME280;38812;50.942;3.644;2022-08-16T00:03:16;100544.31;;;19.36;100.00
52949;BME280;38812;50.942;3.644;2022-08-16T00:05:43;100541.75;;;19.35;100.00
52949;BME280;38812;50.942;3.644;2022-08-16T00:08:09;100537.38;;;19.20;100.00
52949;BME280;38812;50.942;3.644;2022-08-16T00:10:35;100533.47;;;19.11;100.00
52949;BME280;38812;50.942;3.644;2022-08-16T00:13:03;100541.25;;;19.14;100.00
52949;BME280;38812;50.942;3.644;2022-08-16T00:15:39;100538.09;;;19.07;100.00
52949;BME280;38812;50.942;3.644;2022-08-16T00:18:06;100544.59;;;19.03;100.00
52949;BME280;38812;50.942;3.644;2022-08-16T00:20:34;100537.66;;;19.01;100.00
52949;BME280;38812;50.942;3.644;2022-08-16T00:23:01;100532.69;;;18.95;100.00
52949;BME280;38812;50.942;3.644;2022-08-16T00:25:26;100532.88;;;18.92;100.00
52949;BME280;38812;50.942;3.644;2022-08-16T00:27:52;100527.72;;;18.89;100.00
52949;BME280;38812;50.942;3.644;2022-08-16T00:30:19;100526.41;;;18.81;100.00
52949;BME280;38812;50.942;3.644;2022-08-16T00:32:49;100514.03;;;18.80;100.00
52949;BME280;38812;50.942;3.644;2022-08-16T00:35:18;100508.81;;;18.79;100.00
52949;BME280;38812;50.942;3.644;2022-08-16T00:37:45;100515.94;;;18.78;100.00
52949;BME280;38812;50.942;3.644;2022-08-16T00:40:14;100509.16;;;18.73;100.00
52949;BME280;38812;50.942;3.644;2022-08-16T00:42:40;100507.72;;;18.67;100.00
52949;BME280;38812;50.942;3.644;2022-08-16T00:47:31;100513.22;;;18.64;100.00
52949;BME280;38812;50.942;3.644;2022-08-16T00:49:57;100515.03;;;18.64;100.00
52949;BME280;38812;50.942;3.644;2022-08-16T00:52:23;100516.19;;;18.60;100.00
52949;BME280;38812;50.942;3.644;2022-08-16T00:54:48;100507.75;;;18.52;100.00
52949;BME280;38812;50.942;3.644;2022-08-16T00:57:13;100507.66;;;18.53;100.00
52949;BME280;38812;50.942;3.644;2022-08-16T00:59:39;100500.03;;;18.47;100.00
52949;BME280;38812;50.942;3.644;2022-08-16T01:02:06;100510.69;;;18.47;100.00
52949;BME280;38812;50.942;3.644;2022-08-16T01:04:33;100507.25;;;18.45;100.00
52949;BME280;38812;50.942;3.644;2022-08-16T01:07:01;100499.28;;;18.45;100.00
52949;BME280;38812;50.942;3.644;2022-08-16T01:09:32;100511.03;;;18.41;100.00
52949;BME280;38812;50.942;3.644;2022-08-16T01:11:58;100505.72;;;18.41;100.00
52949;BME280;38812;50.942;3.644;2022-08-16T01:14:38;100502.31;;;18.39;100.00
52949;BME280;38812;50.942;3.644;2022-08-16T01:17:05;100510.84;;;18.44;100.00
52949;BME280;38812;50.942;3.644;2022-08-16T01:19:44;100498.22;;;18.33;100.00
52949;BME280;38812;50.942;3.644;2022-08-16T01:22:31;100505.06;;;18.37;100.00
52949;BME280;38812;50.942;3.644;2022-08-16T01:25:09;100495.63;;;18.32;100.00
52949;BME280;38812;50.942;3.644;2022-08-16T01:27:41;100490.84;;;18.23;100.00
52949;BME280;38812;50.942;3.644;2022-08-16T01:30:21;100489.13;;;18.22;100.00
52949;BME280;38812;50.942;3.644;2022-08-16T01:32:49;100488.13;;;18.08;100.00
52949;BME280;38812;50.942;3.644;2022-08-16T01:35:22;100479.66;;;18.02;100.00
52949;BME280;38812;50.942;3.644;2022-08-16T01:37:54;100485.22;;;17.97;100.00
52949;BME280;38812;50.942;3.644;2022-08-16T01:40:26;100479.50;;;17.89;100.00
52949;BME280;38812;50.942;3.644;2022-08-16T01:42:52;100483.72;;;17.93;100.00
52949;BME280;38812;50.942;3.644;2022-08-16T01:45:19;100475.13;;;17.88;100.00
52949;BME280;38812;50.942;3.644;2022-08-16T01:47:46;100476.59;;;17.94;100.00
52949;BME280;38812;50.942;3.644;2022-08-16T01:50:12;100474.78;;;17.94;100.00
52949;BME280;38812;50.942;3.644;2022-08-16T01:52:37;100485.81;;;18.02;100.00
52949;BME280;38812;50.942;3.644;2022-08-16T01:55:05;100489.72;;;17.97;100.00
52949;BME280;38812;50.942;3.644;2022-08-16T01:57:31;100496.63;;;17.99;100.00
52949;BME280;38812;50.942;3.644;2022-08-16T01:59:57;100484.53;;;18.09;100.00
52949;BME280;38812;50.942;3.644;2022-08-16T02:02:23;100482.41;;;18.00;100.00
52949;BME280;38812;50.942;3.644;2022-08-16T02:04:50;100491.56;;;18.10;100.00
52949;BME280;38812;50.942;3.644;2022-08-16T02:07:16;100486.59;;;18.04;100.00
52949;BME280;38812;50.942;3.644;2022-08-16T02:09:44;100490.38;;;18.00;100.00
52949;BME280;38812;50.942;3.644;2022-08-16T02:12:09;100485.78;;;17.88;100.00
52949;BME280;38812;50.942;3.644;2022-08-16T02:14:35;100483.88;;;17.90;100.00
52949;BME280;38812;50.942;3.644;2022-08-16T02:17:04;100493.56;;;17.91;100.00
52949;BME280;38812;50.942;3.644;2022-08-16T02:19:31;100491.25;;;17.85;100.00
52949;BME280;38812;50.942;3.644;2022-08-16T02:21:58;100480.78;;;17.82;100.00
52949;BME280;38812;50.942;3.644;2022-08-16T02:24:24;100478.75;;;17.87;100.00
52949;BME280;38812;50.942;3.644;2022-08-16T02:26:50;100479.69;;;17.86;100.00
52949;BME280;38812;50.942;3.644;2022-08-16T02:29:17;100491.78;;;17.92;100.00
52949;BME280;38812;50.942;3.644;2022-08-16T02:31:46;100486.78;;;17.86;100.00
52949;BME280;38812;50.942;3.644;2022-08-16T02:34:13;100498.28;;;17.86;100.00
52949;BME280;38812;50.942;3.644;2022-08-16T02:36:40;100488.69;;;17.84;100.00
52949;BME280;38812;50.942;3.644;2022-08-16T02:39:06;100491.59;;;17.79;100.00
52949;BME280;38812;50.942;3.644;2022-08-16T02:41:33;100482.84;;;17.77;100.00
52949;BME280;38812;50.942;3.644;2022-08-16T02:43:58;100487.66;;;17.86;100.00
52949;BME280;38812;50.942;3.644;2022-08-16T02:46:24;100483.63;;;17.79;100.00
52949;BME280;38812;50.942;3.644;2022-08-16T02:48:50;100482.19;;;17.73;100.00
52949;BME280;38812;50.942;3.644;2022-08-16T02:51:15;100481.31;;;17.73;100.00
52949;BME280;38812;50.942;3.644;2022-08-16T02:53:43;100475.81;;;17.76;100.00
52949;BME280;38812;50.942;3.644;2022-08-16T02:56:10;100495.38;;;17.75;100.00
52949;BME280;38812;50.942;3.644;2022-08-16T02:58:36;100476.00;;;17.73;100.00
52949;BME280;38812;50.942;3.644;2022-08-16T03:01:03;100475.81;;;17.76;100.00
52949;BME280;38812;50.942;3.644;2022-08-16T03:03:29;100470.69;;;17.73;100.00
52949;BME280;38812;50.942;3.644;2022-08-16T03:05:54;100472.75;;;17.68;100.00
52949;BME280;38812;50.942;3.644;2022-08-16T03:08:21;100487.66;;;17.86;100.00
52949;BME280;38812;50.942;3.644;2022-08-16T03:10:47;100491.25;;;17.85;100.00
52949;BME280;38812;50.942;3.644;2022-08-16T03:13:14;100474.63;;;17.66;100.00
52949;BME280;38812;50.942;3.644;2022-08-16T03:15:40;100483.03;;;17.74;100.00
52949;BME280;38812;50.942;3.644;2022-08-16T03:18:06;100473.44;;;17.71;100.00
52949;BME280;38812;50.942;3.644;2022-08-16T03:20:31;100455.41;;;17.61;100.00
52949;BME280;38812;50.942;3.644;2022-08-16T03:22:57;100459.69;;;17.63;100.00
52949;BME280;38812;50.942;3.644;2022-08-16T03:25:22;100450.09;;;17.61;100.00
52949;BME280;38812;50.942;3.644;2022-08-16T03:27:47;100451.59;;;17.66;100.00
52949;BME280;38812;50.942;3.644;2022-08-16T03:30:19;100453.22;;;17.69;100.00
52949;BME280;38812;50.942;3.644;2022-08-16T03:32:46;100447.19;;;17.81;100.00
52949;BME280;38812;50.942;3.644;2022-08-16T03:35:12;100449.59;;;17.86;100.00
52949;BME280;38812;50.942;3.644;2022-08-16T03:37:37;100455.59;;;17.89;100.00
52949;BME280;38812;50.942;3.644;2022-08-16T03:40:07;100471.38;;;17.92;100.00
52949;BME280;38812;50.942;3.644;2022-08-16T03:42:33;100463.41;;;17.92;100.00
52949;BME280;38812;50.942;3.644;2022-08-16T03:44:59;100475.97;;;18.04;100.00
52949;BME280;38812;50.942;3.644;2022-08-16T03:47:25;100474.41;;;18.00;100.00
52949;BME280;38812;50.942;3.644;2022-08-16T03:49:51;100475.09;;;18.04;100.00
52949;BME280;38812;50.942;3.644;2022-08-16T03:52:21;100479.41;;;18.06;100.00
52949;BME280;38812;50.942;3.644;2022-08-16T03:54:48;100472.19;;;18.08;100.00
52949;BME280;38812;50.942;3.644;2022-08-16T03:57:13;100481.53;;;18.15;100.00
52949;BME280;38812;50.942;3.644;2022-08-16T03:59:39;100485.91;;;18.17;100.00
52949;BME280;38812;50.942;3.644;2022-08-16T04:02:05;100501.47;;;18.23;100.00
52949;BME280;38812;50.942;3.644;2022-08-16T04:04:31;100500.44;;;18.25;100.00
52949;BME280;38812;50.942;3.644;2022-08-16T04:07:01;100501.31;;;18.26;100.00
52949;BME280;38812;50.942;3.644;2022-08-16T04:09:28;100506.28;;;18.32;100.00
52949;BME280;38812;50.942;3.644;2022-08-16T04:11:54;100492.22;;;18.30;100.00
52949;BME280;38812;50.942;3.644;2022-08-16T04:14:19;100499.91;;;18.34;100.00
52949;BME280;38812;50.942;3.644;2022-08-16T04:16:44;100508.16;;;18.30;100.00
52949;BME280;38812;50.942;3.644;2022-08-16T04:19:10;100501.22;;;18.27;100.00
52949;BME280;38812;50.942;3.644;2022-08-16T04:21:35;100498.03;;;18.21;100.00
52949;BME280;38812;50.942;3.644;2022-08-16T04:24:01;100513.81;;;18.24;100.00
52949;BME280;38812;50.942;3.644;2022-08-16T04:26:27;100504.13;;;18.23;100.00
52949;BME280;38812;50.942;3.644;2022-08-16T04:28:52;100498.03;;;18.21;100.00
52949;BME280;38812;50.942;3.644;2022-08-16T04:31:18;100499.69;;;18.23;100.00
52949;BME280;38812;50.942;3.644;2022-08-16T04:33:44;100503.19;;;18.24;100.00
52949;BME280;38812;50.942;3.644;2022-08-16T04:36:09;100510.13;;;18.26;100.00
52949;BME280;38812;50.942;3.644;2022-08-16T04:38:35;100504.91;;;18.25;100.00
52949;BME280;38812;50.942;3.644;2022-08-16T04:41:01;100505.28;;;18.19;100.00
52949;BME280;38812;50.942;3.644;2022-08-16T04:43:26;100501.00;;;18.16;100.00
52949;BME280;38812;50.942;3.644;2022-08-16T04:45:51;100505.03;;;18.07;100.00
52949;BME280;38812;50.942;3.644;2022-08-16T04:48:17;100490.44;;;17.99;100.00
52949;BME280;38812;50.942;3.644;2022-08-16T04:50:42;100495.59;;;18.02;100.00
52949;BME280;38812;50.942;3.644;2022-08-16T04:53:08;100495.59;;;18.02;100.00
52949;BME280;38812;50.942;3.644;2022-08-16T04:55:33;100501.78;;;18.02;100.00
52949;BME280;38812;50.942;3.644;2022-08-16T04:57:59;100498.09;;;18.05;100.00
52949;BME280;38812;50.942;3.644;2022-08-16T05:00:27;100501.34;;;18.10;100.00
52949;BME280;38812;50.942;3.644;2022-08-16T05:02:57;100513.25;;;18.19;100.00
52949;BME280;38812;50.942;3.644;2022-08-16T05:05:22;100519.66;;;18.30;100.00
52949;BME280;38812;50.942;3.644;2022-08-16T05:07:48;100521.66;;;18.41;100.00
52949;BME280;38812;50.942;3.644;2022-08-16T05:10:14;100524.56;;;18.52;100.00
52949;BME280;38812;50.942;3.644;2022-08-16T05:12:40;100530.91;;;18.65;100.00
52949;BME280;38812;50.942;3.644;2022-08-16T05:15:06;100516.47;;;18.69;100.00
52949;BME280;38812;50.942;3.644;2022-08-16T05:17:32;100527.81;;;18.87;100.00
52949;BME280;38812;50.942;3.644;2022-08-16T05:19:58;100547.25;;;19.03;100.00
52949;BME280;38812;50.942;3.644;2022-08-16T05:22:24;100540.69;;;19.09;100.00
52949;BME280;38812;50.942;3.644;2022-08-16T05:24:49;100555.75;;;19.24;100.00
52949;BME280;38812;50.942;3.644;2022-08-16T05:27:15;100556.38;;;19.28;100.00
52949;BME280;38812;50.942;3.644;2022-08-16T05:29:41;100562.19;;;19.34;100.00
52949;BME280;38812;50.942;3.644;2022-08-16T05:32:07;100560.88;;;19.41;100.00
52949;BME280;38812;50.942;3.644;2022-08-16T05:34:32;100566.41;;;19.52;100.00
52949;BME280;38812;50.942;3.644;2022-08-16T05:36:58;100570.31;;;19.61;100.00
52949;BME280;38812;50.942;3.644;2022-08-16T05:39:24;100570.00;;;19.80;100.00
52949;BME280;38812;50.942;3.644;2022-08-16T05:41:51;100572.19;;;19.88;100.00
52949;BME280;38812;50.942;3.644;2022-08-16T05:44:17;100576.16;;;20.09;100.00
52949;BME280;38812;50.942;3.644;2022-08-16T05:46:43;100588.84;;;20.32;100.00
52949;BME280;38812;50.942;3.644;2022-08-16T05:49:12;100596.16;;;20.43;100.00
52949;BME280;38812;50.942;3.644;2022-08-16T05:51:41;100600.91;;;20.52;100.00
52949;BME280;38812;50.942;3.644;2022-08-16T05:54:08;100606.13;;;20.53;100.00
52949;BME280;38812;50.942;3.644;2022-08-16T05:56:33;100609.03;;;20.63;100.00
52949;BME280;38812;50.942;3.644;2022-08-16T05:58:59;100603.75;;;20.76;100.00
52949;BME280;38812;50.942;3.644;2022-08-16T06:01:24;100597.78;;;20.85;100.00
52949;BME280;38812;50.942;3.644;2022-08-16T06:03:49;100599.28;;;20.89;100.00
52949;BME280;38812;50.942;3.644;2022-08-16T06:06:15;100612.34;;;21.06;100.00
52949;BME280;38812;50.942;3.644;2022-08-16T06:08:40;100609.38;;;21.11;100.00
52949;BME280;38812;50.942;3.644;2022-08-16T06:11:07;100611.69;;;21.03;100.00
52949;BME280;38812;50.942;3.644;2022-08-16T06:13:33;100621.41;;;21.04;100.00
52949;BME280;38812;50.942;3.644;2022-08-16T06:15:59;100621.09;;;21.08;100.00
52949;BME280;38812;50.942;3.644;2022-08-16T06:18:24;100630.22;;;21.18;100.00
52949;BME280;38812;50.942;3.644;2022-08-16T06:20:50;100632.72;;;21.22;100.00
52949;BME280;38812;50.942;3.644;2022-08-16T06:23:16;100642.94;;;21.15;100.00
52949;BME280;38812;50.942;3.644;2022-08-16T06:25:41;100647.25;;;21.30;100.00
52949;BME280;38812;50.942;3.644;2022-08-16T06:28:08;100648.34;;;21.40;100.00
52949;BME280;38812;50.942;3.644;2022-08-16T06:30:34;100645.97;;;21.48;100.00
52949;BME280;38812;50.942;3.644;2022-08-16T06:33:00;100648.75;;;21.47;100.00
52949;BME280;38812;50.942;3.644;2022-08-16T06:35:26;100653.22;;;21.46;100.00
52949;BME280;38812;50.942;3.644;2022-08-16T06:37:51;100658.81;;;21.43;100.00
52949;BME280;38812;50.942;3.644;2022-08-16T06:40:17;100651.94;;;21.27;100.00
52949;BME280;38812;50.942;3.644;2022-08-16T06:42:42;100650.00;;;21.29;100.00
52949;BME280;38812;50.942;3.644;2022-08-16T06:45:08;100648.53;;;21.37;100.00
52949;BME280;38812;50.942;3.644;2022-08-16T06:47:33;100649.94;;;21.43;100.00
52949;BME280;38812;50.942;3.644;2022-08-16T06:49:59;100640.63;;;21.48;100.00
52949;BME280;38812;50.942;3.644;2022-08-16T06:52:24;100635.06;;;21.51;100.00
52949;BME280;38812;50.942;3.644;2022-08-16T06:54:49;100639.56;;;21.64;100.00
52949;BME280;38812;50.942;3.644;2022-08-16T06:57:15;100630.59;;;21.65;100.00
52949;BME280;38812;50.942;3.644;2022-08-16T06:59:41;100640.72;;;21.72;100.00
52949;BME280;38812;50.942;3.644;2022-08-16T07:02:06;100643.63;;;21.82;100.00
52949;BME280;38812;50.942;3.644;2022-08-16T07:04:32;100638.75;;;22.00;100.00
52949;BME280;38812;50.942;3.644;2022-08-16T07:06:57;100633.75;;;22.08;100.00
52949;BME280;38812;50.942;3.644;2022-08-16T07:09:23;100633.50;;;22.23;100.00
52949;BME280;38812;50.942;3.644;2022-08-16T07:11:48;100649.59;;;22.35;100.00
52949;BME280;38812;50.942;3.644;2022-08-16T07:14:14;100648.66;;;22.36;100.00
52949;BME280;38812;50.942;3.644;2022-08-16T07:16:40;100657.47;;;22.12;100.00
52949;BME280;38812;50.942;3.644;2022-08-16T07:19:08;100645.28;;;21.96;100.00
52949;BME280;38812;50.942;3.644;2022-08-16T07:21:34;100669.91;;;21.88;100.00
52949;BME280;38812;50.942;3.644;2022-08-16T07:24:02;100668.84;;;21.90;100.00
52949;BME280;38812;50.942;3.644;2022-08-16T07:26:27;100672.47;;;21.89;100.00
52949;BME280;38812;50.942;3.644;2022-08-16T07:28:53;100671.44;;;21.79;100.00
52949;BME280;38812;50.942;3.644;2022-08-16T07:31:20;100678.03;;;21.74;100.00
52949;BME280;38812;50.942;3.644;2022-08-16T07:33:45;100682.09;;;21.67;100.00
52949;BME280;38812;50.942;3.644;2022-08-16T07:36:12;100693.66;;;21.54;100.00
52949;BME280;38812;50.942;3.644;2022-08-16T07:38:38;100691.94;;;21.41;100.00
52949;BME280;38812;50.942;3.644;2022-08-16T07:41:04;100692.75;;;21.29;100.00
52949;BME280;38812;50.942;3.644;2022-08-16T07:43:30;100701.31;;;21.21;100.00
52949;BME280;38812;50.942;3.644;2022-08-16T07:45:56;100694.44;;;21.17;100.00
52949;BME280;38812;50.942;3.644;2022-08-16T07:48:21;100700.19;;;21.11;100.00
52949;BME280;38812;50.942;3.644;2022-08-16T07:50:47;100695.78;;;21.10;100.00
52949;BME280;38812;50.942;3.644;2022-08-16T07:53:13;100698.88;;;21.04;100.00
52949;BME280;38812;50.942;3.644;2022-08-16T07:55:39;100681.22;;;21.01;100.00
52949;BME280;38812;50.942;3.644;2022-08-16T07:58:04;100682.63;;;20.94;100.00
52949;BME280;38812;50.942;3.644;2022-08-16T08:00:31;100687.19;;;20.92;100.00
52949;BME280;38812;50.942;3.644;2022-08-16T08:02:57;100681.38;;;21.00;100.00
52949;BME280;38812;50.942;3.644;2022-08-16T08:05:25;100698.66;;;21.07;100.00
52949;BME280;38812;50.942;3.644;2022-08-16T08:07:51;100699.78;;;21.17;100.00
52949;BME280;38812;50.942;3.644;2022-08-16T08:10:20;100685.38;;;21.19;100.00
52949;BME280;38812;50.942;3.644;2022-08-16T08:12:50;100709.97;;;21.25;100.00
52949;BME280;38812;50.942;3.644;2022-08-16T08:15:16;100700.69;;;21.30;100.00
52949;BME280;38812;50.942;3.644;2022-08-16T08:17:42;100713.75;;;21.47;100.00
52949;BME280;38812;50.942;3.644;2022-08-16T08:20:10;100713.66;;;21.62;100.00
52949;BME280;38812;50.942;3.644;2022-08-16T08:22:36;100718.69;;;21.79;100.00
52949;BME280;38812;50.942;3.644;2022-08-16T08:25:04;100737.56;;;22.03;100.00
52949;BME280;38812;50.942;3.644;2022-08-16T08:27:30;100731.75;;;22.21;100.00
52949;BME280;38812;50.942;3.644;2022-08-16T08:29:55;100725.28;;;22.49;100.00
52949;BME280;38812;50.942;3.644;2022-08-16T08:32:21;100723.69;;;22.83;100.00
52949;BME280;38812;50.942;3.644;2022-08-16T08:34:47;100726.81;;;23.01;100.00
52949;BME280;38812;50.942;3.644;2022-08-16T08:37:13;100729.56;;;23.12;100.00
52949;BME280;38812;50.942;3.644;2022-08-16T08:39:38;100746.94;;;23.54;100.00
52949;BME280;38812;50.942;3.644;2022-08-16T08:42:04;100742.53;;;23.65;100.00
52949;BME280;38812;50.942;3.644;2022-08-16T08:44:30;100745.78;;;23.81;100.00
52949;BME280;38812;50.942;3.644;2022-08-16T08:46:58;100742.34;;;23.79;100.00
52949;BME280;38812;50.942;3.644;2022-08-16T08:49:23;100749.16;;;23.72;100.00
52949;BME280;38812;50.942;3.644;2022-08-16T08:51:49;100745.97;;;23.67;100.00
52949;BME280;38812;50.942;3.644;2022-08-16T08:54:14;100743.50;;;23.52;100.00
52949;BME280;38812;50.942;3.644;2022-08-16T08:56:40;100739.84;;;23.53;100.00
52949;BME280;38812;50.942;3.644;2022-08-16T08:59:06;100755.84;;;23.66;100.00
52949;BME280;38812;50.942;3.644;2022-08-16T09:01:34;100747.47;;;23.93;100.00
52949;BME280;38812;50.942;3.644;2022-08-16T09:03:59;100750.56;;;24.33;100.00
52949;BME280;38812;50.942;3.644;2022-08-16T09:06:27;100758.94;;;24.73;100.00
52949;BME280;38812;50.942;3.644;2022-08-16T09:08:52;100756.81;;;25.42;100.00
52949;BME280;38812;50.942;3.644;2022-08-16T09:11:18;100755.78;;;25.96;100.00
52949;BME280;38812;50.942;3.644;2022-08-16T09:13:43;100764.56;;;26.49;100.00
52949;BME280;38812;50.942;3.644;2022-08-16T09:16:09;100760.94;;;26.70;99.65
52949;BME280;38812;50.942;3.644;2022-08-16T09:18:34;100772.88;;;26.86;98.03
52949;BME280;38812;50.942;3.644;2022-08-16T09:20:59;100776.41;;;26.77;100.00
52949;BME280;38812;50.942;3.644;2022-08-16T09:23:29;100777.72;;;26.92;98.64
52949;BME280;38812;50.942;3.644;2022-08-16T09:25:56;100778.63;;;27.12;94.85
52949;BME280;38812;50.942;3.644;2022-08-16T09:28:21;100777.78;;;27.12;93.15
52949;BME280;38812;50.942;3.644;2022-08-16T09:30:47;100777.22;;;26.99;94.59
52949;BME280;38812;50.942;3.644;2022-08-16T09:33:15;100775.53;;;27.36;85.57
52949;BME280;38812;50.942;3.644;2022-08-16T09:35:44;100771.78;;;28.05;79.03
52949;BME280;38812;50.942;3.644;2022-08-16T09:38:11;100775.56;;;28.58;71.49
52949;BME280;38812;50.942;3.644;2022-08-16T09:40:42;100763.81;;;29.22;62.88
52949;BME280;38812;50.942;3.644;2022-08-16T09:43:12;100773.66;;;29.41;60.84
52949;BME280;38812;50.942;3.644;2022-08-16T09:45:38;100762.78;;;29.06;60.12
52949;BME280;38812;50.942;3.644;2022-08-16T09:48:10;100776.50;;;29.22;62.21
52949;BME280;38812;50.942;3.644;2022-08-16T09:50:37;100763.88;;;29.13;61.47
52949;BME280;38812;50.942;3.644;2022-08-16T09:53:04;100765.97;;;29.54;59.22
52949;BME280;38812;50.942;3.644;2022-08-16T09:55:30;100768.84;;;29.35;59.45
52949;BME280;38812;50.942;3.644;2022-08-16T09:57:55;100762.41;;;29.36;58.22
52949;BME280;38812;50.942;3.644;2022-08-16T10:00:22;100762.63;;;29.25;59.34
52949;BME280;38812;50.942;3.644;2022-08-16T10:02:48;100767.66;;;29.02;57.84
52949;BME280;38812;50.942;3.644;2022-08-16T10:05:17;100776.53;;;28.67;56.41
52949;BME280;38812;50.942;3.644;2022-08-16T10:07:43;100768.66;;;28.74;57.17
52949;BME280;38812;50.942;3.644;2022-08-16T10:10:09;100780.03;;;28.77;54.54
52949;BME280;38812;50.942;3.644;2022-08-16T10:12:35;100780.34;;;28.74;55.31
52949;BME280;38812;50.942;3.644;2022-08-16T10:15:20;100783.03;;;28.47;55.14
52949;BME280;38812;50.942;3.644;2022-08-16T10:17:48;100779.22;;;28.67;55.31
52949;BME280;38812;50.942;3.644;2022-08-16T10:20:15;100775.41;;;28.60;56.40
52949;BME280;38812;50.942;3.644;2022-08-16T10:22:40;100781.59;;;28.52;57.73
52949;BME280;38812;50.942;3.644;2022-08-16T10:25:06;100782.25;;;28.17;56.64
52949;BME280;38812;50.942;3.644;2022-08-16T10:27:33;100785.16;;;27.96;57.96
52949;BME280;38812;50.942;3.644;2022-08-16T10:30:00;100788.47;;;27.71;57.39
52949;BME280;38812;50.942;3.644;2022-08-16T10:32:25;100778.50;;;27.52;58.42
52949;BME280;38812;50.942;3.644;2022-08-16T10:34:51;100786.91;;;27.69;61.53
52949;BME280;38812;50.942;3.644;2022-08-16T10:37:16;100784.22;;;27.69;60.55
52949;BME280;38812;50.942;3.644;2022-08-16T10:39:41;100787.63;;;27.71;60.22
52949;BME280;38812;50.942;3.644;2022-08-16T10:42:08;100773.53;;;27.77;59.44
52949;BME280;38812;50.942;3.644;2022-08-16T10:44:34;100774.34;;;28.06;58.85
52949;BME280;38812;50.942;3.644;2022-08-16T10:46:59;100781.97;;;28.20;59.15
52949;BME280;38812;50.942;3.644;2022-08-16T10:49:24;100775.13;;;28.90;56.46
52949;BME280;38812;50.942;3.644;2022-08-16T10:51:50;100779.81;;;29.51;55.20
52949;BME280;38812;50.942;3.644;2022-08-16T10:54:18;100777.78;;;30.15;53.26
52949;BME280;38812;50.942;3.644;2022-08-16T10:56:43;100777.13;;;30.55;50.76
52949;BME280;38812;50.942;3.644;2022-08-16T10:59:09;100780.47;;;30.15;51.49
52949;BME280;38812;50.942;3.644;2022-08-16T11:01:34;100786.81;;;30.23;50.55
52949;BME280;38812;50.942;3.644;2022-08-16T11:04:00;100787.75;;;30.40;50.84
52949;BME280;38812;50.942;3.644;2022-08-16T11:06:26;100773.81;;;30.61;48.57
52949;BME280;38812;50.942;3.644;2022-08-16T11:08:51;100779.09;;;31.13;47.62
52949;BME280;38812;50.942;3.644;2022-08-16T11:11:17;100778.66;;;30.99;47.88
52949;BME280;38812;50.942;3.644;2022-08-16T11:13:42;100784.28;;;31.06;47.57
52949;BME280;38812;50.942;3.644;2022-08-16T11:16:10;100785.28;;;30.21;47.94
52949;BME280;38812;50.942;3.644;2022-08-16T11:18:35;100789.66;;;29.96;49.06
52949;BME280;38812;50.942;3.644;2022-08-16T11:21:01;100784.81;;;29.82;49.55
52949;BME280;38812;50.942;3.644;2022-08-16T11:23:27;100798.03;;;29.85;49.39
52949;BME280;38812;50.942;3.644;2022-08-16T11:25:53;100782.84;;;29.66;48.83
52949;BME280;38812;50.942;3.644;2022-08-16T11:28:19;100795.69;;;29.90;49.87
52949;BME280;38812;50.942;3.644;2022-08-16T11:30:45;100789.53;;;29.09;51.42
52949;BME280;38812;50.942;3.644;2022-08-16T11:33:10;100788.13;;;29.05;52.27
52949;BME280;38812;50.942;3.644;2022-08-16T11:35:37;100798.44;;;29.01;53.40
52949;BME280;38812;50.942;3.644;2022-08-16T11:38:10;100802.44;;;28.97;53.45
52949;BME280;38812;50.942;3.644;2022-08-16T11:40:51;100803.75;;;29.11;53.94
52949;BME280;38812;50.942;3.644;2022-08-16T11:43:25;100799.88;;;28.95;51.79
52949;BME280;38812;50.942;3.644;2022-08-16T11:45:51;100808.00;;;29.13;52.44
52949;BME280;38812;50.942;3.644;2022-08-16T11:48:18;100806.56;;;29.19;51.08
52949;BME280;38812;50.942;3.644;2022-08-16T11:50:45;100806.72;;;29.35;50.33
52949;BME280;38812;50.942;3.644;2022-08-16T11:53:11;100810.16;;;29.10;51.15
52949;BME280;38812;50.942;3.644;2022-08-16T11:55:37;100815.88;;;29.24;51.58
52949;BME280;38812;50.942;3.644;2022-08-16T11:58:03;100815.44;;;29.11;50.94
52949;BME280;38812;50.942;3.644;2022-08-16T12:00:30;100816.81;;;29.15;51.43
52949;BME280;38812;50.942;3.644;2022-08-16T12:02:57;100819.47;;;29.78;50.13
52949;BME280;38812;50.942;3.644;2022-08-16T12:05:23;100818.81;;;29.58;49.30
52949;BME280;38812;50.942;3.644;2022-08-16T12:07:48;100815.63;;;29.81;49.60
52949;BME280;38812;50.942;3.644;2022-08-16T12:10:17;100825.75;;;30.22;48.95
52949;BME280;38812;50.942;3.644;2022-08-16T12:12:44;100825.00;;;30.64;47.65
52949;BME280;38812;50.942;3.644;2022-08-16T12:15:11;100818.63;;;30.81;46.90
52949;BME280;38812;50.942;3.644;2022-08-16T12:17:38;100819.63;;;30.80;45.74
52949;BME280;38812;50.942;3.644;2022-08-16T12:20:07;100821.38;;;30.89;44.71
52949;BME280;38812;50.942;3.644;2022-08-16T12:22:36;100815.09;;;30.97;44.82
52949;BME280;38812;50.942;3.644;2022-08-16T12:25:08;100817.31;;;30.93;44.24
52949;BME280;38812;50.942;3.644;2022-08-16T12:27:34;100810.97;;;31.27;43.61
52949;BME280;38812;50.942;3.644;2022-08-16T12:30:00;100801.84;;;31.36;43.72
52949;BME280;38812;50.942;3.644;2022-08-16T12:32:26;100801.00;;;31.52;42.93
52949;BME280;38812;50.942;3.644;2022-08-16T12:34:51;100798.13;;;31.37;43.44
52949;BME280;38812;50.942;3.644;2022-08-16T12:37:17;100805.25;;;30.88;43.48
52949;BME280;38812;50.942;3.644;2022-08-16T12:39:42;100805.59;;;30.51;44.07
52949;BME280;38812;50.942;3.644;2022-08-16T12:42:08;100794.13;;;30.57;44.42